createdAt,value
2018-11-22T00:00:38.045Z,2.9
2018-11-22T00:01:45.249Z,2.8
2018-11-22T00:02:51.929Z,2.8
2018-11-22T00:03:58.597Z,2.9
2018-11-22T00:05:05.540Z,2.9
2018-11-22T00:06:12.467Z,2.9
2018-11-22T00:07:19.914Z,2.9
2018-11-22T00:08:27.103Z,2.9
2018-11-22T00:09:34.048Z,2.9
2018-11-22T00:10:40.428Z,2.9
2018-11-22T00:11:47.377Z,2.9
2018-11-22T00:12:53.755Z,2.9
2018-11-22T00:14:00.702Z,2.9
2018-11-22T00:15:07.897Z,2.9
2018-11-22T00:16:14.559Z,2.9
2018-11-22T00:17:21.485Z,2.9
2018-11-22T00:18:28.440Z,2.9
2018-11-22T00:19:35.378Z,2.9
2018-11-22T00:20:42.412Z,2.9
2018-11-22T00:21:49.067Z,2.9
2018-11-22T00:22:56.281Z,2.9
2018-11-22T00:24:03.500Z,2.9
2018-11-22T00:25:10.166Z,2.9
2018-11-22T00:26:17.372Z,2.9
2018-11-22T00:27:24.592Z,2.9
2018-11-22T00:28:31.800Z,2.9
2018-11-22T00:29:38.735Z,2.9
2018-11-22T00:30:45.661Z,2.9
2018-11-22T00:31:52.876Z,2.9
2018-11-22T00:32:59.529Z,2.9
2018-11-22T00:34:06.470Z,2.9
2018-11-22T00:35:13.675Z,2.9
2018-11-22T00:36:20.896Z,3
2018-11-22T00:37:27.827Z,2.9
2018-11-22T00:38:34.491Z,2.9
2018-11-22T00:39:41.694Z,3
2018-11-22T00:40:48.907Z,2.9
2018-11-22T00:41:56.112Z,2.9
2018-11-22T00:43:03.343Z,3
2018-11-22T00:44:10.265Z,3
2018-11-22T00:45:17.490Z,3
2018-11-22T00:46:24.693Z,3
2018-11-22T00:47:31.638Z,3
2018-11-22T00:48:38.567Z,3
2018-11-22T00:49:45.516Z,2.9
2018-11-22T00:50:52.170Z,3
2018-11-22T00:51:59.392Z,3
2018-11-22T00:53:06.595Z,3
2018-11-22T00:54:13.538Z,3
2018-11-22T00:55:20.744Z,3
2018-11-22T00:56:27.688Z,3
2018-11-22T00:57:34.625Z,3
2018-11-22T00:58:41.842Z,3
2018-11-22T00:59:48.508Z,3
2018-11-22T01:00:55.455Z,3
2018-11-22T01:02:02.657Z,3
2018-11-22T01:03:09.878Z,3
2018-11-22T01:04:16.802Z,3
2018-11-22T01:05:24.016Z,3
2018-11-22T01:06:31.218Z,3
2018-11-22T01:07:38.163Z,3
2018-11-22T01:08:45.364Z,3
2018-11-22T01:09:52.022Z,3
2018-11-22T01:10:58.975Z,3
2018-11-22T01:12:06.199Z,3.1
2018-11-22T01:13:13.149Z,3.1
2018-11-22T01:14:20.097Z,3.1
2018-11-22T01:15:27.298Z,3
2018-11-22T01:16:33.967Z,3.1
2018-11-22T01:17:41.183Z,3.1
2018-11-22T01:18:47.860Z,3.1
2018-11-22T01:19:55.071Z,3.1
2018-11-22T01:21:02.288Z,3.1
2018-11-22T01:22:09.491Z,3.1
2018-11-22T01:23:15.892Z,3.1
2018-11-22T01:24:22.837Z,3.1
2018-11-22T01:25:29.790Z,3.1
2018-11-22T01:26:36.985Z,3.1
2018-11-22T01:27:43.925Z,3.1
2018-11-22T01:28:51.124Z,3
2018-11-22T01:29:58.338Z,3
2018-11-22T01:31:05.547Z,3
2018-11-22T01:32:12.761Z,3
2018-11-22T01:33:19.709Z,3
2018-11-22T01:34:26.653Z,3
2018-11-22T01:35:33.860Z,3.1
2018-11-22T01:36:41.081Z,3
2018-11-22T01:37:48.288Z,3.1
2018-11-22T01:38:55.513Z,3
2018-11-22T01:40:02.727Z,3.1
2018-11-22T01:41:09.675Z,3
2018-11-22T01:42:16.603Z,3.1
2018-11-22T01:43:23.262Z,3.1
2018-11-22T01:44:30.457Z,3.1
2018-11-22T01:45:37.675Z,3.1
2018-11-22T01:46:44.875Z,3.1
2018-11-22T01:47:52.093Z,3.1
2018-11-22T01:48:59.302Z,3.1
2018-11-22T01:50:06.522Z,3.1
2018-11-22T01:51:13.736Z,3.1
2018-11-22T01:52:20.414Z,3.1
2018-11-22T01:53:27.340Z,3.2
2018-11-22T01:54:34.571Z,3.1
2018-11-22T01:55:41.224Z,3.1
2018-11-22T01:56:48.436Z,3.2
2018-11-22T01:57:55.106Z,3.2
2018-11-22T01:59:02.332Z,3.1
2018-11-22T02:00:09.266Z,3.2
2018-11-22T02:01:15.937Z,3.2
2018-11-22T02:02:22.593Z,3.2
2018-11-22T02:03:29.824Z,3.2
2018-11-22T02:04:36.761Z,3.2
2018-11-22T02:05:43.715Z,3.2
2018-11-22T02:06:50.642Z,3.2
2018-11-22T02:07:57.584Z,3.2
2018-11-22T02:09:04.786Z,3.2
2018-11-22T02:10:12.010Z,3.2
2018-11-22T02:11:18.678Z,3.2
2018-11-22T02:12:25.903Z,3.2
2018-11-22T02:13:32.559Z,3.2
2018-11-22T02:14:39.512Z,3.2
2018-11-22T02:15:46.719Z,3.2
2018-11-22T02:16:53.113Z,3.2
2018-11-22T02:18:00.320Z,3.2
2018-11-22T02:19:07.283Z,3.2
2018-11-22T02:20:13.924Z,3.2
2018-11-22T02:21:21.143Z,3.2
2018-11-22T02:22:28.346Z,3.1
2018-11-22T02:23:35.298Z,3.1
2018-11-22T02:24:42.505Z,3.2
2018-11-22T02:25:49.723Z,3.1
2018-11-22T02:26:56.658Z,3.1
2018-11-22T02:28:03.885Z,3.1
2018-11-22T02:29:11.090Z,3.1
2018-11-22T02:30:18.043Z,3.1
2018-11-22T02:31:24.692Z,3.1
2018-11-22T02:32:31.635Z,3.1
2018-11-22T02:33:38.838Z,3.1
2018-11-22T02:34:46.061Z,3.1
2018-11-22T02:35:53.260Z,3.1
2018-11-22T02:37:00.210Z,3.1
2018-11-22T02:38:07.419Z,3.1
2018-11-22T02:39:14.377Z,3.1
2018-11-22T02:40:21.574Z,3.1
2018-11-22T02:41:28.793Z,3.1
2018-11-22T02:42:35.743Z,3.2
2018-11-22T02:43:42.972Z,3.1
2018-11-22T02:44:50.180Z,3.1
2018-11-22T02:45:57.403Z,3.1
2018-11-22T02:47:04.659Z,3.1
2018-11-22T02:48:11.606Z,3.2
2018-11-22T02:49:18.537Z,3.1
2018-11-22T02:50:25.210Z,3.1
2018-11-22T02:51:32.410Z,3.1
2018-11-22T02:52:39.626Z,3.1
2018-11-22T02:53:46.836Z,3.1
2018-11-22T02:54:54.063Z,3.1
2018-11-22T02:56:01.274Z,3.1
2018-11-22T02:57:08.221Z,3.1
2018-11-22T02:58:15.145Z,3.1
2018-11-22T02:59:22.363Z,3.1
2018-11-22T03:00:29.289Z,3.1
2018-11-22T03:01:35.961Z,3.1
2018-11-22T03:02:42.892Z,3.1
2018-11-22T03:03:50.111Z,3.1
2018-11-22T03:04:57.319Z,3.1
2018-11-22T03:06:04.267Z,3.1
2018-11-22T03:07:11.207Z,3.1
2018-11-22T03:08:18.434Z,3.1
2018-11-22T03:09:25.642Z,3.1
2018-11-22T03:10:32.596Z,3.1
2018-11-22T03:11:39.809Z,3.1
2018-11-22T03:12:47.061Z,3.1
2018-11-22T03:13:55.381Z,3.1
2018-11-22T03:15:02.602Z,3.1
2018-11-22T03:16:09.532Z,3.1
2018-11-22T03:17:16.198Z,3.1
2018-11-22T03:18:23.134Z,3.2
2018-11-22T03:19:30.084Z,3.2
2018-11-22T03:20:37.008Z,3.1
2018-11-22T03:21:43.954Z,3.2
2018-11-22T03:22:51.152Z,3.2
2018-11-22T03:23:58.375Z,3.1
2018-11-22T03:25:05.577Z,3.1
2018-11-22T03:26:12.794Z,3.1
2018-11-22T03:27:20.008Z,3.1
2018-11-22T03:28:27.232Z,3.1
2018-11-22T03:29:33.610Z,3.1
2018-11-22T03:30:40.557Z,3.1
2018-11-22T03:31:47.760Z,3.1
2018-11-22T03:32:54.985Z,3.1
2018-11-22T03:34:01.913Z,3.1
2018-11-22T03:35:09.136Z,3.1
2018-11-22T03:36:16.059Z,3.1
2018-11-22T03:37:23.277Z,3.1
2018-11-22T03:38:30.477Z,3.1
2018-11-22T03:39:37.153Z,3.1
2018-11-22T03:40:44.083Z,3.1
2018-11-22T03:41:51.032Z,3.1
2018-11-22T03:42:58.237Z,3.1
2018-11-22T03:44:05.183Z,3.1
2018-11-22T03:45:12.119Z,3.1
2018-11-22T03:46:19.335Z,3.1
2018-11-22T03:47:26.546Z,3.1
2018-11-22T03:48:33.767Z,3.1
2018-11-22T03:49:40.972Z,3.1
2018-11-22T03:50:48.194Z,3.1
2018-11-22T03:51:55.397Z,3.1
2018-11-22T03:53:02.612Z,3.1
2018-11-22T03:54:09.817Z,3.1
2018-11-22T03:55:16.760Z,3.1
2018-11-22T03:56:23.691Z,3.1
2018-11-22T03:57:30.920Z,3.1
2018-11-22T03:58:37.851Z,3.1
2018-11-22T03:59:44.519Z,3.1
2018-11-22T04:00:51.725Z,3.1
2018-11-22T04:01:58.672Z,3.1
2018-11-22T04:03:05.873Z,3.1
2018-11-22T04:04:12.813Z,3.1
2018-11-22T04:05:19.463Z,3.1
2018-11-22T04:06:26.129Z,3.1
2018-11-22T04:07:33.332Z,3.1
2018-11-22T04:08:41.498Z,3.1
2018-11-22T04:09:48.709Z,3.1
2018-11-22T04:10:55.654Z,3.1
2018-11-22T04:12:02.854Z,3.1
2018-11-22T04:13:09.511Z,3.1
2018-11-22T04:14:16.714Z,3.1
2018-11-22T04:15:23.109Z,3.1
2018-11-22T04:16:30.042Z,3.1
2018-11-22T04:17:36.714Z,3.1
2018-11-22T04:18:43.919Z,3.1
2018-11-22T04:19:50.876Z,3.1
2018-11-22T04:20:57.789Z,3.1
2018-11-22T04:22:05.012Z,3.1
2018-11-22T04:23:12.213Z,3.1
2018-11-22T04:24:19.434Z,3.1
2018-11-22T04:25:25.819Z,3.1
2018-11-22T04:26:32.755Z,3.1
2018-11-22T04:27:39.958Z,3.1
2018-11-22T04:28:47.174Z,3.1
2018-11-22T04:29:54.098Z,3.1
2018-11-22T04:31:01.045Z,3.1
2018-11-22T04:32:08.254Z,3.1
2018-11-22T04:33:15.473Z,3.1
2018-11-22T04:34:22.404Z,3.1
2018-11-22T04:35:28.801Z,3.1
2018-11-22T04:36:35.453Z,3.1
2018-11-22T04:37:42.119Z,3.1
2018-11-22T04:38:49.046Z,3.1
2018-11-22T04:39:55.984Z,3.1
2018-11-22T04:41:02.915Z,3.1
2018-11-22T04:42:09.858Z,3.1
2018-11-22T04:43:16.786Z,3.1
2018-11-22T04:44:23.738Z,3.1
2018-11-22T04:45:30.660Z,3.1
2018-11-22T04:46:38.819Z,3.1
2018-11-22T04:47:45.740Z,3.1
2018-11-22T04:48:52.682Z,3.1
2018-11-22T04:49:59.886Z,3.1
2018-11-22T04:51:07.103Z,3.1
2018-11-22T04:52:14.310Z,3.1
2018-11-22T04:53:21.527Z,3.1
2018-11-22T04:54:28.192Z,3
2018-11-22T04:55:35.134Z,3
2018-11-22T04:56:42.066Z,3.1
2018-11-22T04:57:49.285Z,3
2018-11-22T04:58:55.659Z,3
2018-11-22T05:00:02.317Z,3
2018-11-22T05:01:09.254Z,3
2018-11-22T05:02:16.204Z,3
2018-11-22T05:03:23.132Z,3
2018-11-22T05:04:31.239Z,2.9
2018-11-22T05:05:38.445Z,3
2018-11-22T05:06:45.390Z,2.9
2018-11-22T05:07:52.602Z,2.9
2018-11-22T05:08:59.814Z,2.9
2018-11-22T05:10:07.027Z,2.9
2018-11-22T05:11:14.241Z,2.9
2018-11-22T05:12:21.668Z,2.9
2018-11-22T05:13:28.887Z,2.9
2018-11-22T05:14:35.838Z,2.9
2018-11-22T05:15:43.064Z,2.9
2018-11-22T05:16:49.462Z,2.9
2018-11-22T05:17:56.670Z,2.9
2018-11-22T05:19:03.884Z,2.9
2018-11-22T05:20:11.102Z,2.9
2018-11-22T05:21:18.304Z,2.9
2018-11-22T05:22:25.536Z,2.9
2018-11-22T05:23:32.458Z,2.9
2018-11-22T05:24:39.395Z,2.9
2018-11-22T05:25:46.597Z,2.9
2018-11-22T05:26:53.819Z,2.8
2018-11-22T05:28:01.033Z,2.8
2018-11-22T05:29:12.920Z,2.8
2018-11-22T05:30:19.849Z,2.8
2018-11-22T05:31:26.796Z,2.8
2018-11-22T05:32:35.863Z,2.9
2018-11-22T05:33:42.810Z,2.9
2018-11-22T05:34:50.021Z,2.9
2018-11-22T05:35:57.229Z,2.9
2018-11-22T05:37:04.163Z,2.8
2018-11-22T05:38:11.387Z,2.9
2018-11-22T05:39:18.315Z,2.8
2018-11-22T05:40:25.531Z,2.9
2018-11-22T05:41:32.458Z,2.8
2018-11-22T05:42:39.406Z,2.9
2018-11-22T05:43:46.325Z,2.8
2018-11-22T05:44:52.999Z,2.8
2018-11-22T05:46:00.205Z,2.8
2018-11-22T05:47:07.147Z,2.8
2018-11-22T05:48:13.803Z,2.8
2018-11-22T05:49:21.032Z,2.8
2018-11-22T05:50:28.229Z,2.8
2018-11-22T05:51:35.173Z,2.8
2018-11-22T05:52:42.376Z,2.8
2018-11-22T05:53:49.318Z,2.8
2018-11-22T05:54:56.247Z,2.8
2018-11-22T05:56:03.208Z,2.8
2018-11-22T05:57:10.411Z,2.8
2018-11-22T05:58:17.622Z,2.8
2018-11-22T05:59:24.277Z,2.8
2018-11-22T06:00:31.498Z,2.7
2018-11-22T06:01:38.433Z,2.8
2018-11-22T06:02:45.650Z,2.7
2018-11-22T06:03:52.854Z,2.7
2018-11-22T06:05:00.090Z,2.8
2018-11-22T06:06:07.317Z,2.8
2018-11-22T06:07:14.258Z,2.7
2018-11-22T06:08:20.912Z,2.7
2018-11-22T06:09:28.131Z,2.7
2018-11-22T06:10:35.054Z,2.7
2018-11-22T06:11:42.000Z,2.7
2018-11-22T06:12:48.933Z,2.7
2018-11-22T06:13:56.157Z,2.7
2018-11-22T06:15:02.815Z,2.7
2018-11-22T06:16:09.753Z,2.7
2018-11-22T06:17:16.952Z,2.7
2018-11-22T06:18:23.626Z,2.8
2018-11-22T06:19:30.832Z,2.7
2018-11-22T06:20:38.055Z,2.7
2018-11-22T06:21:44.434Z,2.7
2018-11-22T06:22:51.117Z,2.7
2018-11-22T06:23:58.049Z,2.7
2018-11-22T06:25:05.271Z,2.7
2018-11-22T06:26:12.471Z,2.7
2018-11-22T06:27:19.408Z,2.7
2018-11-22T06:28:26.343Z,2.7
2018-11-22T06:29:33.003Z,2.7
2018-11-22T06:30:39.932Z,2.7
2018-11-22T06:31:47.160Z,2.7
2018-11-22T06:32:54.089Z,2.7
2018-11-22T06:34:00.760Z,2.7
2018-11-22T06:35:07.696Z,2.7
2018-11-22T06:36:14.635Z,2.6
2018-11-22T06:37:21.853Z,2.6
2018-11-22T06:38:28.512Z,2.7
2018-11-22T06:39:35.437Z,2.7
2018-11-22T06:40:42.390Z,2.7
2018-11-22T06:41:49.589Z,2.6
2018-11-22T06:42:56.812Z,2.7
2018-11-22T06:44:03.760Z,2.7
2018-11-22T06:45:10.715Z,2.6
2018-11-22T06:46:17.918Z,2.6
2018-11-22T06:47:24.860Z,2.6
2018-11-22T06:48:32.067Z,2.6
2018-11-22T06:49:38.734Z,2.6
2018-11-22T06:50:45.660Z,2.6
2018-11-22T06:51:52.613Z,2.6
2018-11-22T06:52:59.810Z,2.5
2018-11-22T06:54:07.033Z,2.6
2018-11-22T06:55:14.235Z,2.6
2018-11-22T06:56:21.181Z,2.6
2018-11-22T06:57:28.106Z,2.6
2018-11-22T06:58:35.064Z,2.5
2018-11-22T06:59:42.254Z,2.5
2018-11-22T07:00:48.644Z,2.5
2018-11-22T07:01:55.850Z,2.5
2018-11-22T07:03:02.795Z,2.6
2018-11-22T07:04:09.727Z,2.6
2018-11-22T07:05:16.947Z,2.6
2018-11-22T07:06:24.146Z,2.6
2018-11-22T07:07:31.090Z,2.5
2018-11-22T07:08:38.021Z,2.5
2018-11-22T07:09:44.685Z,2.5
2018-11-22T07:10:51.351Z,2.5
2018-11-22T07:11:58.294Z,2.5
2018-11-22T07:13:04.945Z,2.5
2018-11-22T07:14:11.881Z,2.6
2018-11-22T07:15:19.085Z,2.6
2018-11-22T07:16:26.031Z,2.6
2018-11-22T07:17:32.958Z,2.5
2018-11-22T07:18:39.629Z,2.6
2018-11-22T07:19:46.833Z,2.6
2018-11-22T07:20:53.772Z,2.6
2018-11-22T07:22:00.998Z,2.7
2018-11-22T07:23:08.214Z,2.7
2018-11-22T07:24:14.879Z,2.6
2018-11-22T07:25:22.099Z,2.7
2018-11-22T07:26:29.305Z,2.6
2018-11-22T07:27:38.833Z,2.6
2018-11-22T07:28:46.033Z,2.6
2018-11-22T07:29:53.253Z,2.6
2018-11-22T07:31:00.185Z,2.7
2018-11-22T07:32:07.127Z,2.6
2018-11-22T07:33:14.052Z,2.6
2018-11-22T07:34:20.988Z,2.6
2018-11-22T07:35:28.196Z,2.6
2018-11-22T07:36:35.411Z,2.6
2018-11-22T07:37:42.619Z,2.6
2018-11-22T07:38:49.561Z,2.6
2018-11-22T07:39:56.761Z,2.6
2018-11-22T07:41:03.424Z,2.6
2018-11-22T07:42:10.632Z,2.6
2018-11-22T07:43:17.572Z,2.6
2018-11-22T07:44:24.501Z,2.6
2018-11-22T07:45:31.715Z,2.6
2018-11-22T07:46:38.937Z,2.6
2018-11-22T07:47:45.620Z,2.6
2018-11-22T07:48:52.821Z,2.6
2018-11-22T07:49:59.774Z,2.6
2018-11-22T07:51:06.981Z,2.5
2018-11-22T07:52:14.200Z,2.5
2018-11-22T07:53:21.135Z,2.5
2018-11-22T07:54:28.355Z,2.5
2018-11-22T07:55:35.007Z,2.5
2018-11-22T07:56:41.961Z,2.5
2018-11-22T07:57:48.616Z,2.6
2018-11-22T07:58:55.831Z,2.6
2018-11-22T08:00:02.763Z,2.6
2018-11-22T08:01:09.707Z,2.6
2018-11-22T08:02:16.642Z,2.7
2018-11-22T08:03:23.595Z,2.6
2018-11-22T08:04:30.798Z,2.7
2018-11-22T08:05:38.018Z,2.7
2018-11-22T08:06:45.219Z,2.6
2018-11-22T08:07:51.890Z,2.7
2018-11-22T08:08:58.828Z,2.7
2018-11-22T08:10:05.490Z,2.7
2018-11-22T08:11:12.695Z,2.6
2018-11-22T08:12:26.453Z,2.7
2018-11-22T08:13:33.389Z,2.7
2018-11-22T08:14:40.611Z,2.7
2018-11-22T08:15:47.828Z,2.7
2018-11-22T08:16:55.045Z,2.7
2018-11-22T08:18:02.249Z,2.7
2018-11-22T08:19:09.468Z,2.8
2018-11-22T08:20:16.392Z,2.8
2018-11-22T08:21:23.342Z,2.8
2018-11-22T08:22:30.279Z,2.8
2018-11-22T08:23:36.671Z,2.8
2018-11-22T08:24:43.870Z,2.8
2018-11-22T08:25:50.814Z,2.9
2018-11-22T08:26:58.025Z,2.8
2018-11-22T08:28:04.690Z,2.8
2018-11-22T08:29:11.621Z,2.8
2018-11-22T08:30:18.559Z,2.8
2018-11-22T08:31:25.487Z,2.9
2018-11-22T08:32:32.705Z,2.8
2018-11-22T08:33:39.912Z,2.9
2018-11-22T08:34:47.131Z,2.8
2018-11-22T08:35:54.331Z,2.9
2018-11-22T08:37:01.277Z,2.9
2018-11-22T08:38:08.489Z,3
2018-11-22T08:39:15.164Z,2.9
2018-11-22T08:40:22.358Z,2.9
2018-11-22T08:41:29.293Z,2.9
2018-11-22T08:42:35.961Z,2.9
2018-11-22T08:43:43.172Z,2.8
2018-11-22T08:44:50.376Z,2.8
2018-11-22T08:45:57.056Z,2.8
2018-11-22T08:47:03.985Z,2.9
2018-11-22T08:48:11.242Z,2.9
2018-11-22T08:49:18.181Z,2.9
2018-11-22T08:50:25.407Z,3
2018-11-22T08:51:32.615Z,3
2018-11-22T08:52:39.287Z,3
2018-11-22T08:53:46.219Z,3.1
2018-11-22T08:54:53.437Z,3.1
2018-11-22T08:56:00.645Z,3.1
2018-11-22T08:57:07.593Z,3.1
2018-11-22T08:58:14.519Z,3
2018-11-22T08:59:21.734Z,3
2018-11-22T09:00:28.943Z,3
2018-11-22T09:01:36.156Z,3
2018-11-22T09:02:45.947Z,3.1
2018-11-22T09:03:52.892Z,3.1
2018-11-22T09:05:00.099Z,3.1
2018-11-22T09:06:07.316Z,3.1
2018-11-22T09:07:14.252Z,3.1
2018-11-22T09:08:21.190Z,3.1
2018-11-22T09:09:28.395Z,3.1
2018-11-22T09:10:35.645Z,3.2
2018-11-22T09:11:42.295Z,3.2
2018-11-22T09:12:49.514Z,3.2
2018-11-22T09:13:56.737Z,3.2
2018-11-22T09:15:03.949Z,3.2
2018-11-22T09:16:10.884Z,3.2
2018-11-22T09:17:17.819Z,3.3
2018-11-22T09:18:24.750Z,3.3
2018-11-22T09:19:31.686Z,3.4
2018-11-22T09:20:38.892Z,3.4
2018-11-22T09:21:45.826Z,3.5
2018-11-22T09:22:52.476Z,3.5
2018-11-22T09:23:59.696Z,3.5
2018-11-22T09:25:06.901Z,3.5
2018-11-22T09:26:14.114Z,3.5
2018-11-22T09:27:21.049Z,3.5
2018-11-22T09:28:28.265Z,3.5
2018-11-22T09:29:54.048Z,3.4
2018-11-22T09:31:00.989Z,3.5
2018-11-22T09:32:08.191Z,3.5
2018-11-22T09:33:14.872Z,3.5
2018-11-22T09:34:21.808Z,3.6
2018-11-22T09:35:29.027Z,3.5
2018-11-22T09:36:35.960Z,3.5
2018-11-22T09:37:43.186Z,3.5
2018-11-22T09:38:50.383Z,3.5
2018-11-22T09:39:57.336Z,3.5
2018-11-22T09:41:04.277Z,3.6
2018-11-22T09:42:11.292Z,3.6
2018-11-22T09:43:18.311Z,3.6
2018-11-22T09:44:25.265Z,3.6
2018-11-22T09:45:32.199Z,3.7
2018-11-22T09:46:39.134Z,3.7
2018-11-22T09:47:46.341Z,3.7
2018-11-22T09:48:52.759Z,3.7
2018-11-22T09:49:59.706Z,3.7
2018-11-22T09:51:06.646Z,3.7
2018-11-22T09:52:13.848Z,3.7
2018-11-22T09:53:21.068Z,3.7
2018-11-22T09:54:28.007Z,3.6
2018-11-22T09:55:35.232Z,3.6
2018-11-22T09:56:42.449Z,3.7
2018-11-22T09:57:49.405Z,3.7
2018-11-22T09:58:56.656Z,3.8
2018-11-22T10:00:03.318Z,3.8
2018-11-22T10:01:10.253Z,3.8
2018-11-22T10:02:16.913Z,3.8
2018-11-22T10:03:23.848Z,3.8
2018-11-22T10:04:30.867Z,3.8
2018-11-22T10:05:38.304Z,3.9
2018-11-22T10:06:45.040Z,3.9
2018-11-22T10:07:52.256Z,3.9
2018-11-22T10:08:59.476Z,4
2018-11-22T10:10:06.690Z,4
2018-11-22T10:11:13.641Z,4
2018-11-22T10:12:20.641Z,4.1
2018-11-22T10:13:27.985Z,4
2018-11-22T10:14:35.219Z,4
2018-11-22T10:15:42.170Z,3.9
2018-11-22T10:16:49.130Z,3.9
2018-11-22T10:17:56.131Z,4
2018-11-22T10:19:02.785Z,4
2018-11-22T10:20:09.722Z,4
2018-11-22T10:21:16.663Z,4
2018-11-22T10:22:23.982Z,4.1
2018-11-22T10:23:30.836Z,4.1
2018-11-22T10:24:37.782Z,4.2
2018-11-22T10:25:43.905Z,4.2
2018-11-22T10:26:50.572Z,4.1
2018-11-22T10:27:57.516Z,4.1
2018-11-22T10:29:04.191Z,4.1
2018-11-22T10:30:10.936Z,4.1
2018-11-22T10:31:18.031Z,4.1
2018-11-22T10:32:24.955Z,4.1
2018-11-22T10:33:32.176Z,4.1
2018-11-22T10:34:39.114Z,4.1
2018-11-22T10:35:46.332Z,4.1
2018-11-22T10:36:53.542Z,4.2
2018-11-22T10:38:01.169Z,4.2
2018-11-22T10:39:08.813Z,4.2
2018-11-22T10:40:15.820Z,4.2
2018-11-22T10:41:22.753Z,4.2
2018-11-22T10:42:29.733Z,4.2
2018-11-22T10:43:38.131Z,4.2
2018-11-22T10:44:45.076Z,4.2
2018-11-22T10:45:51.744Z,4.2
2018-11-22T10:46:58.415Z,4.2
2018-11-22T10:48:05.619Z,4.2
2018-11-22T10:49:12.570Z,4.3
2018-11-22T10:50:19.515Z,4.3
2018-11-22T10:51:26.741Z,4.3
2018-11-22T10:52:33.946Z,4.3
2018-11-22T10:53:40.636Z,4.3
2018-11-22T10:54:47.291Z,4.2
2018-11-22T10:55:54.242Z,4.1
2018-11-22T10:57:01.441Z,4.1
2018-11-22T10:58:08.629Z,4.1
2018-11-22T10:59:15.565Z,4.2
2018-11-22T11:00:22.237Z,4.2
2018-11-22T11:01:29.449Z,4.2
2018-11-22T11:02:36.674Z,4.3
2018-11-22T11:03:43.615Z,4.3
2018-11-22T11:04:50.574Z,4.4
2018-11-22T11:05:57.515Z,4.4
2018-11-22T11:07:04.473Z,4.4
2018-11-22T11:08:11.684Z,4.4
2018-11-22T11:09:18.381Z,4.4
2018-11-22T11:10:25.585Z,4.4
2018-11-22T11:11:32.296Z,4.5
2018-11-22T11:12:38.952Z,4.5
2018-11-22T11:13:45.620Z,4.6
2018-11-22T11:14:52.734Z,4.6
2018-11-22T11:15:59.802Z,4.6
2018-11-22T11:17:07.000Z,4.6
2018-11-22T11:18:13.944Z,4.6
2018-11-22T11:19:21.156Z,4.6
2018-11-22T11:20:28.373Z,4.7
2018-11-22T11:21:35.303Z,4.7
2018-11-22T11:22:42.250Z,4.7
2018-11-22T11:23:49.472Z,4.7
2018-11-22T11:24:56.691Z,4.6
2018-11-22T11:26:03.630Z,4.5
2018-11-22T11:27:10.846Z,4.4
2018-11-22T11:28:17.771Z,4.5
2018-11-22T11:29:25.039Z,4.5
2018-11-22T11:30:31.971Z,4.6
2018-11-22T11:31:38.633Z,4.6
2018-11-22T11:32:45.855Z,4.6
2018-11-22T11:33:53.077Z,4.6
2018-11-22T11:35:00.013Z,4.6
2018-11-22T11:36:06.966Z,4.5
2018-11-22T11:37:13.901Z,4.6
2018-11-22T11:38:21.117Z,4.6
2018-11-22T11:39:28.052Z,4.6
2018-11-22T11:40:35.284Z,4.6
2018-11-22T11:41:42.223Z,4.6
2018-11-22T11:42:49.167Z,4.6
2018-11-22T11:43:55.819Z,4.6
2018-11-22T11:45:03.041Z,4.6
2018-11-22T11:46:09.970Z,4.7
2018-11-22T11:47:16.917Z,4.8
2018-11-22T11:48:24.125Z,4.8
2018-11-22T11:49:30.801Z,4.7
2018-11-22T11:50:38.218Z,4.7
2018-11-22T11:51:44.885Z,4.7
2018-11-22T11:52:52.090Z,4.7
2018-11-22T11:53:59.034Z,4.7
2018-11-22T11:55:05.971Z,4.6
2018-11-22T11:56:12.927Z,4.6
2018-11-22T11:57:20.128Z,4.5
2018-11-22T11:58:27.071Z,4.5
2018-11-22T11:59:34.273Z,4.5
2018-11-22T12:00:41.221Z,4.5
2018-11-22T12:01:48.431Z,4.4
2018-11-22T12:02:55.650Z,4.3
2018-11-22T12:04:02.580Z,4.3
2018-11-22T12:05:09.558Z,4.4
2018-11-22T12:06:16.234Z,4.5
2018-11-22T12:07:23.189Z,4.6
2018-11-22T12:08:29.843Z,4.6
2018-11-22T12:09:37.064Z,4.6
2018-11-22T12:10:44.305Z,4.7
2018-11-22T12:11:51.262Z,4.7
2018-11-22T12:12:58.470Z,4.8
2018-11-22T12:14:05.415Z,4.8
2018-11-22T12:15:12.353Z,4.7
2018-11-22T12:16:19.575Z,4.7
2018-11-22T12:17:26.518Z,4.7
2018-11-22T12:18:37.618Z,4.7
2018-11-22T12:19:44.545Z,4.8
2018-11-22T12:20:51.510Z,4.8
2018-11-22T12:21:58.169Z,4.9
2018-11-22T12:23:05.400Z,5
2018-11-22T12:24:12.608Z,5
2018-11-22T12:25:19.548Z,5
2018-11-22T12:26:26.483Z,4.9
2018-11-22T12:27:33.154Z,5
2018-11-22T12:28:40.359Z,5
2018-11-22T12:29:47.301Z,5
2018-11-22T12:30:54.520Z,5.1
2018-11-22T12:32:01.744Z,5
2018-11-22T12:33:08.681Z,5
2018-11-22T12:34:15.906Z,4.9
2018-11-22T12:35:22.308Z,4.8
2018-11-22T12:36:28.997Z,4.8
2018-11-22T12:37:43.495Z,4.8
2018-11-22T12:38:50.758Z,4.7
2018-11-22T12:39:57.412Z,4.7
2018-11-22T12:41:04.380Z,4.7
2018-11-22T12:42:11.586Z,4.7
2018-11-22T12:43:18.536Z,4.7
2018-11-22T12:44:25.734Z,4.7
2018-11-22T12:45:32.666Z,4.8
2018-11-22T12:46:39.875Z,4.9
2018-11-22T12:47:47.093Z,5
2018-11-22T12:48:54.066Z,5
2018-11-22T12:50:01.286Z,5.1
2018-11-22T12:51:09.532Z,5.2
2018-11-22T12:52:16.764Z,5.2
2018-11-22T12:53:23.433Z,5.3
2018-11-22T12:54:30.110Z,5.3
2018-11-22T12:55:37.040Z,5.4
2018-11-22T12:56:43.979Z,5.4
2018-11-22T12:57:50.928Z,5.3
2018-11-22T12:58:57.887Z,5.3
2018-11-22T13:00:05.103Z,5.3
2018-11-22T13:01:12.128Z,5.3
2018-11-22T13:02:19.333Z,5.2
2018-11-22T13:03:25.994Z,5.3
2018-11-22T13:04:33.200Z,5.2
2018-11-22T13:05:40.426Z,5.2
2018-11-22T13:06:47.637Z,5.2
2018-11-22T13:07:54.582Z,5.3
2018-11-22T13:09:01.801Z,5.4
2018-11-22T13:10:08.460Z,5.4
2018-11-22T13:11:15.404Z,5.4
2018-11-22T13:12:22.348Z,5.4
2018-11-22T13:13:29.011Z,5.4
2018-11-22T13:14:35.965Z,5.2
2018-11-22T13:15:43.178Z,5.2
2018-11-22T13:16:50.404Z,5.2
2018-11-22T13:17:57.077Z,5.2
2018-11-22T13:19:04.021Z,5.3
2018-11-22T13:20:12.389Z,5.3
2018-11-22T13:21:19.162Z,5.4
2018-11-22T13:22:26.091Z,5.4
2018-11-22T13:23:33.316Z,5.4
2018-11-22T13:24:40.256Z,5.4
2018-11-22T13:25:47.203Z,5.3
2018-11-22T13:26:54.413Z,5.3
2018-11-22T13:28:01.092Z,5.3
2018-11-22T13:29:08.297Z,5.3
2018-11-22T13:30:15.523Z,5.3
2018-11-22T13:31:22.187Z,5.3
2018-11-22T13:32:29.136Z,5.4
2018-11-22T13:33:35.816Z,5.4
2018-11-22T13:34:43.033Z,5.4
2018-11-22T13:35:50.249Z,5.4
2018-11-22T13:36:57.199Z,5.3
2018-11-22T13:38:03.872Z,5.4
2018-11-22T13:39:10.824Z,5.4
2018-11-22T13:40:17.760Z,5.4
2018-11-22T13:41:24.981Z,5.4
2018-11-22T13:42:32.193Z,5.5
2018-11-22T13:43:39.137Z,5.4
2018-11-22T13:44:46.074Z,5.3
2018-11-22T13:45:53.286Z,5.3
2018-11-22T13:47:00.501Z,5.4
2018-11-22T13:48:07.722Z,5.4
2018-11-22T13:49:14.652Z,5.4
2018-11-22T13:50:21.598Z,5.3
2018-11-22T13:51:28.542Z,5.3
2018-11-22T13:52:37.789Z,5.3
2018-11-22T13:53:44.453Z,5.3
2018-11-22T13:54:51.671Z,5.3
2018-11-22T13:55:58.327Z,5.3
2018-11-22T13:57:05.270Z,5.2
2018-11-22T13:58:12.196Z,5.2
2018-11-22T13:59:19.435Z,5.2
2018-11-22T14:00:26.364Z,5.2
2018-11-22T14:01:33.033Z,5.2
2018-11-22T14:02:39.968Z,5.2
2018-11-22T14:03:47.209Z,5.2
2018-11-22T14:04:54.422Z,5.2
2018-11-22T14:06:01.644Z,5.3
2018-11-22T14:07:08.867Z,5.3
2018-11-22T14:08:16.090Z,5.3
2018-11-22T14:09:23.300Z,5.3
2018-11-22T14:10:30.245Z,5.3
2018-11-22T14:11:36.642Z,5.2
2018-11-22T14:12:43.591Z,5.2
2018-11-22T14:13:50.516Z,5.2
2018-11-22T14:14:57.738Z,5.2
2018-11-22T14:16:04.685Z,5.3
2018-11-22T14:17:11.642Z,5.3
2018-11-22T14:18:18.586Z,5.3
2018-11-22T14:19:25.255Z,5.3
2018-11-22T14:20:32.466Z,5.3
2018-11-22T14:21:39.411Z,5.3
2018-11-22T14:22:46.626Z,5.2
2018-11-22T14:23:53.853Z,5.2
2018-11-22T14:25:00.550Z,5.2
2018-11-22T14:26:07.771Z,5.2
2018-11-22T14:27:14.991Z,5.2
2018-11-22T14:28:21.697Z,5.2
2018-11-22T14:29:28.912Z,5.2
2018-11-22T14:30:35.861Z,5.2
2018-11-22T14:31:43.066Z,5.2
2018-11-22T14:32:50.302Z,5.2
2018-11-22T14:33:57.506Z,5.2
2018-11-22T14:35:04.722Z,5.2
2018-11-22T14:36:11.380Z,5.3
2018-11-22T14:37:19.524Z,5.3
2018-11-22T14:38:26.177Z,5.2
2018-11-22T14:39:33.385Z,5.2
2018-11-22T14:40:40.587Z,5.2
2018-11-22T14:41:47.531Z,5.2
2018-11-22T14:42:54.455Z,5.2
2018-11-22T14:44:01.680Z,5.2
2018-11-22T14:45:08.331Z,5.2
2018-11-22T14:46:14.730Z,5.1
2018-11-22T14:47:21.668Z,5.1
2018-11-22T14:48:28.089Z,5.1
2018-11-22T14:49:35.296Z,5.1
2018-11-22T14:50:42.520Z,5.1
2018-11-22T14:51:49.724Z,5.1
2018-11-22T14:52:56.942Z,5.1
2018-11-22T14:54:04.146Z,5
2018-11-22T14:55:11.098Z,5
2018-11-22T14:56:18.316Z,5
2018-11-22T14:57:25.530Z,5
2018-11-22T14:58:32.475Z,5
2018-11-22T14:59:39.427Z,5
2018-11-22T15:00:46.096Z,5
2018-11-22T15:01:52.775Z,4.9
2018-11-22T15:02:59.996Z,4.9
2018-11-22T15:04:06.671Z,4.9
2018-11-22T15:05:13.343Z,4.9
2018-11-22T15:06:20.353Z,4.9
2018-11-22T15:07:29.295Z,4.9
2018-11-22T15:08:36.276Z,4.8
2018-11-22T15:09:43.206Z,4.8
2018-11-22T15:10:50.426Z,4.8
2018-11-22T15:11:57.365Z,4.8
2018-11-22T15:13:04.585Z,4.8
2018-11-22T15:14:11.788Z,4.8
2018-11-22T15:15:19.013Z,4.8
2018-11-22T15:16:26.221Z,4.8
2018-11-22T15:17:33.181Z,4.8
2018-11-22T15:18:40.123Z,4.8
2018-11-22T15:19:47.076Z,4.8
2018-11-22T15:21:00.847Z,4.8
2018-11-22T15:22:08.367Z,4.8
2018-11-22T15:23:15.320Z,4.8
2018-11-22T15:24:22.273Z,4.8
2018-11-22T15:25:29.538Z,4.8
2018-11-22T15:26:36.503Z,4.7
2018-11-22T15:27:43.434Z,4.7
2018-11-22T15:28:50.662Z,4.7
2018-11-22T15:29:57.863Z,4.7